sensor_id;sensor_type;location;lat;lon;timestamp;P1;durP1;ratioP1;P2;durP2;ratioP2
10277;SDS011;5184;51.376;7.148;2023-02-11T00:00:20;40.70;;;27.27;;
10277;SDS011;5184;51.376;7.148;2023-02-11T00:02:47;39.40;;;26.27;;
10277;SDS011;5184;51.376;7.148;2023-02-11T00:05:14;39.63;;;26.23;;
10277;SDS011;5184;51.376;7.148;2023-02-11T00:07:40;42.13;;;26.07;;
10277;SDS011;5184;51.376;7.148;2023-02-11T00:10:08;44.20;;;26.00;;
10277;SDS011;5184;51.376;7.148;2023-02-11T00:12:35;38.97;;;25.37;;
10277;SDS011;5184;51.376;7.148;2023-02-11T00:15:02;38.87;;;24.77;;
10277;SDS011;5184;51.376;7.148;2023-02-11T00:17:28;38.67;;;25.10;;
10277;SDS011;5184;51.376;7.148;2023-02-11T00:19:56;39.77;;;25.30;;
10277;SDS011;5184;51.376;7.148;2023-02-11T00:22:23;38.30;;;25.03;;
10277;SDS011;5184;51.376;7.148;2023-02-11T00:24:50;36.90;;;24.90;;
10277;SDS011;5184;51.376;7.148;2023-02-11T00:27:17;39.03;;;26.23;;
10277;SDS011;5184;51.376;7.148;2023-02-11T00:29:44;40.90;;;25.80;;
10277;SDS011;5184;51.376;7.148;2023-02-11T00:32:10;39.23;;;24.63;;
10277;SDS011;5184;51.376;7.148;2023-02-11T00:34:37;39.97;;;23.47;;
10277;SDS011;5184;51.376;7.148;2023-02-11T00:37:04;35.67;;;23.90;;
10277;SDS011;5184;51.376;7.148;2023-02-11T00:39:31;38.43;;;24.93;;
10277;SDS011;5184;51.376;7.148;2023-02-11T00:41:58;39.27;;;25.17;;
10277;SDS011;5184;51.376;7.148;2023-02-11T00:44:26;37.20;;;23.60;;
10277;SDS011;5184;51.376;7.148;2023-02-11T00:46:53;39.57;;;25.47;;
10277;SDS011;5184;51.376;7.148;2023-02-11T00:49:20;34.87;;;23.17;;
10277;SDS011;5184;51.376;7.148;2023-02-11T00:51:47;35.00;;;24.23;;
10277;SDS011;5184;51.376;7.148;2023-02-11T00:54:15;35.63;;;22.50;;
10277;SDS011;5184;51.376;7.148;2023-02-11T00:56:43;33.70;;;23.10;;
10277;SDS011;5184;51.376;7.148;2023-02-11T00:59:10;32.17;;;22.13;;
10277;SDS011;5184;51.376;7.148;2023-02-11T01:01:37;35.23;;;22.13;;
10277;SDS011;5184;51.376;7.148;2023-02-11T01:04:04;31.77;;;22.37;;
10277;SDS011;5184;51.376;7.148;2023-02-11T01:06:32;36.73;;;23.13;;
10277;SDS011;5184;51.376;7.148;2023-02-11T01:08:58;32.63;;;22.87;;
10277;SDS011;5184;51.376;7.148;2023-02-11T01:11:25;35.77;;;23.30;;
10277;SDS011;5184;51.376;7.148;2023-02-11T01:13:53;34.37;;;21.70;;
10277;SDS011;5184;51.376;7.148;2023-02-11T01:16:20;32.97;;;22.53;;
10277;SDS011;5184;51.376;7.148;2023-02-11T01:18:46;34.97;;;21.43;;
10277;SDS011;5184;51.376;7.148;2023-02-11T01:21:14;29.83;;;20.67;;
10277;SDS011;5184;51.376;7.148;2023-02-11T01:23:40;34.50;;;23.03;;
10277;SDS011;5184;51.376;7.148;2023-02-11T01:26:07;29.30;;;20.13;;
10277;SDS011;5184;51.376;7.148;2023-02-11T01:28:34;31.03;;;21.07;;
10277;SDS011;5184;51.376;7.148;2023-02-11T01:31:01;28.57;;;20.90;;
10277;SDS011;5184;51.376;7.148;2023-02-11T01:33:28;31.27;;;20.50;;
10277;SDS011;5184;51.376;7.148;2023-02-11T01:35:54;31.73;;;22.00;;
10277;SDS011;5184;51.376;7.148;2023-02-11T01:38:22;31.33;;;20.40;;
10277;SDS011;5184;51.376;7.148;2023-02-11T01:40:49;31.70;;;21.40;;
10277;SDS011;5184;51.376;7.148;2023-02-11T01:43:15;31.10;;;21.23;;
10277;SDS011;5184;51.376;7.148;2023-02-11T01:48:31;28.93;;;20.30;;
10277;SDS011;5184;51.376;7.148;2023-02-11T01:51:00;31.53;;;21.13;;
10277;SDS011;5184;51.376;7.148;2023-02-11T01:53:29;32.17;;;20.00;;
10277;SDS011;5184;51.376;7.148;2023-02-11T01:56:02;31.27;;;22.03;;
10277;SDS011;5184;51.376;7.148;2023-02-11T01:58:34;32.30;;;21.37;;
10277;SDS011;5184;51.376;7.148;2023-02-11T02:01:01;30.37;;;20.97;;
10277;SDS011;5184;51.376;7.148;2023-02-11T02:03:28;35.10;;;22.10;;
10277;SDS011;5184;51.376;7.148;2023-02-11T02:05:57;29.87;;;21.10;;
10277;SDS011;5184;51.376;7.148;2023-02-11T02:08:25;31.00;;;22.17;;
10277;SDS011;5184;51.376;7.148;2023-02-11T02:10:56;32.27;;;20.80;;
10277;SDS011;5184;51.376;7.148;2023-02-11T02:13:23;32.43;;;21.70;;
10277;SDS011;5184;51.376;7.148;2023-02-11T02:15:50;31.27;;;21.80;;
10277;SDS011;5184;51.376;7.148;2023-02-11T02:21:01;31.73;;;22.33;;
10277;SDS011;5184;51.376;7.148;2023-02-11T02:23:34;32.67;;;22.10;;
10277;SDS011;5184;51.376;7.148;2023-02-11T02:26:25;32.63;;;22.13;;
10277;SDS011;5184;51.376;7.148;2023-02-11T02:29:16;30.70;;;21.53;;
10277;SDS011;5184;51.376;7.148;2023-02-11T02:34:35;32.63;;;21.70;;
10277;SDS011;5184;51.376;7.148;2023-02-11T02:37:04;32.63;;;22.40;;
10277;SDS011;5184;51.376;7.148;2023-02-11T02:39:32;33.30;;;22.03;;
10277;SDS011;5184;51.376;7.148;2023-02-11T02:41:58;31.50;;;20.93;;
10277;SDS011;5184;51.376;7.148;2023-02-11T02:44:25;30.03;;;20.80;;
10277;SDS011;5184;51.376;7.148;2023-02-11T02:46:53;34.53;;;21.53;;
10277;SDS011;5184;51.376;7.148;2023-02-11T02:49:20;35.53;;;23.23;;
10277;SDS011;5184;51.376;7.148;2023-02-11T02:57:08;30.50;;;21.07;;
10277;SDS011;5184;51.376;7.148;2023-02-11T02:59:49;31.73;;;21.67;;
10277;SDS011;5184;51.376;7.148;2023-02-11T03:02:30;32.63;;;22.23;;
10277;SDS011;5184;51.376;7.148;2023-02-11T03:05:04;29.53;;;21.57;;
10277;SDS011;5184;51.376;7.148;2023-02-11T03:07:36;34.40;;;22.00;;
10277;SDS011;5184;51.376;7.148;2023-02-11T03:10:13;32.73;;;21.50;;
10277;SDS011;5184;51.376;7.148;2023-02-11T03:12:39;31.90;;;21.40;;
10277;SDS011;5184;51.376;7.148;2023-02-11T03:15:07;36.10;;;21.90;;
10277;SDS011;5184;51.376;7.148;2023-02-11T03:17:34;31.33;;;20.67;;
10277;SDS011;5184;51.376;7.148;2023-02-11T03:20:01;30.57;;;20.90;;
10277;SDS011;5184;51.376;7.148;2023-02-11T03:22:29;34.50;;;21.67;;
10277;SDS011;5184;51.376;7.148;2023-02-11T03:24:55;30.37;;;21.47;;
10277;SDS011;5184;51.376;7.148;2023-02-11T03:27:32;34.10;;;21.10;;
10277;SDS011;5184;51.376;7.148;2023-02-11T03:30:15;31.13;;;21.53;;
10277;SDS011;5184;51.376;7.148;2023-02-11T03:32:50;31.73;;;21.53;;
10277;SDS011;5184;51.376;7.148;2023-02-11T03:35:19;34.33;;;22.27;;
10277;SDS011;5184;51.376;7.148;2023-02-11T03:37:50;33.17;;;21.97;;
10277;SDS011;5184;51.376;7.148;2023-02-11T03:40:20;34.90;;;20.83;;
10277;SDS011;5184;51.376;7.148;2023-02-11T03:42:49;33.87;;;20.43;;
10277;SDS011;5184;51.376;7.148;2023-02-11T03:45:19;30.03;;;20.77;;
10277;SDS011;5184;51.376;7.148;2023-02-11T03:47:47;30.83;;;21.07;;
10277;SDS011;5184;51.376;7.148;2023-02-11T03:50:13;30.37;;;22.17;;
10277;SDS011;5184;51.376;7.148;2023-02-11T03:52:39;36.97;;;23.13;;
10277;SDS011;5184;51.376;7.148;2023-02-11T03:55:07;38.37;;;22.63;;
10277;SDS011;5184;51.376;7.148;2023-02-11T03:57:32;36.33;;;22.27;;
10277;SDS011;5184;51.376;7.148;2023-02-11T04:00:00;36.50;;;21.77;;
10277;SDS011;5184;51.376;7.148;2023-02-11T04:02:28;37.83;;;22.67;;
10277;SDS011;5184;51.376;7.148;2023-02-11T04:04:54;33.23;;;22.60;;
10277;SDS011;5184;51.376;7.148;2023-02-11T04:07:21;38.50;;;22.27;;
10277;SDS011;5184;51.376;7.148;2023-02-11T04:09:47;38.00;;;22.03;;
10277;SDS011;5184;51.376;7.148;2023-02-11T04:12:14;36.23;;;22.23;;
10277;SDS011;5184;51.376;7.148;2023-02-11T04:14:41;37.20;;;23.13;;
10277;SDS011;5184;51.376;7.148;2023-02-11T04:17:07;37.67;;;22.87;;
10277;SDS011;5184;51.376;7.148;2023-02-11T04:19:34;32.23;;;23.13;;
10277;SDS011;5184;51.376;7.148;2023-02-11T04:22:01;38.43;;;22.60;;
10277;SDS011;5184;51.376;7.148;2023-02-11T04:24:27;35.83;;;22.17;;
10277;SDS011;5184;51.376;7.148;2023-02-11T04:26:54;35.37;;;22.93;;
10277;SDS011;5184;51.376;7.148;2023-02-11T04:29:21;39.63;;;23.17;;
10277;SDS011;5184;51.376;7.148;2023-02-11T04:31:49;33.97;;;21.63;;
10277;SDS011;5184;51.376;7.148;2023-02-11T04:34:15;39.83;;;23.87;;
10277;SDS011;5184;51.376;7.148;2023-02-11T04:36:42;40.07;;;23.40;;
10277;SDS011;5184;51.376;7.148;2023-02-11T04:39:08;42.63;;;24.10;;
10277;SDS011;5184;51.376;7.148;2023-02-11T04:41:36;38.07;;;23.40;;
10277;SDS011;5184;51.376;7.148;2023-02-11T04:44:03;37.37;;;24.03;;
10277;SDS011;5184;51.376;7.148;2023-02-11T04:46:30;37.60;;;22.83;;
10277;SDS011;5184;51.376;7.148;2023-02-11T04:48:57;38.23;;;23.17;;
10277;SDS011;5184;51.376;7.148;2023-02-11T04:51:23;40.87;;;25.47;;
10277;SDS011;5184;51.376;7.148;2023-02-11T04:53:50;37.43;;;23.63;;
10277;SDS011;5184;51.376;7.148;2023-02-11T04:56:18;42.83;;;25.90;;
10277;SDS011;5184;51.376;7.148;2023-02-11T04:58:45;36.37;;;23.97;;
10277;SDS011;5184;51.376;7.148;2023-02-11T05:01:13;38.47;;;24.03;;
10277;SDS011;5184;51.376;7.148;2023-02-11T05:03:39;35.53;;;25.13;;
10277;SDS011;5184;51.376;7.148;2023-02-11T05:06:06;48.47;;;25.37;;
10277;SDS011;5184;51.376;7.148;2023-02-11T05:08:33;47.57;;;25.73;;
10277;SDS011;5184;51.376;7.148;2023-02-11T05:11:01;42.47;;;25.93;;
10277;SDS011;5184;51.376;7.148;2023-02-11T05:13:28;43.87;;;26.93;;
10277;SDS011;5184;51.376;7.148;2023-02-11T05:15:54;42.60;;;26.83;;
10277;SDS011;5184;51.376;7.148;2023-02-11T05:18:21;42.97;;;26.57;;
10277;SDS011;5184;51.376;7.148;2023-02-11T05:20:48;41.00;;;26.27;;
10277;SDS011;5184;51.376;7.148;2023-02-11T05:23:17;39.73;;;25.90;;
10277;SDS011;5184;51.376;7.148;2023-02-11T05:25:44;44.23;;;26.70;;
10277;SDS011;5184;51.376;7.148;2023-02-11T05:28:10;35.90;;;25.77;;
10277;SDS011;5184;51.376;7.148;2023-02-11T05:30:37;40.57;;;27.13;;
10277;SDS011;5184;51.376;7.148;2023-02-11T05:33:04;45.33;;;26.83;;
10277;SDS011;5184;51.376;7.148;2023-02-11T05:35:32;42.77;;;27.20;;
10277;SDS011;5184;51.376;7.148;2023-02-11T05:37:58;42.60;;;25.53;;
10277;SDS011;5184;51.376;7.148;2023-02-11T05:40:25;48.90;;;28.17;;
10277;SDS011;5184;51.376;7.148;2023-02-11T05:42:52;48.37;;;28.43;;
10277;SDS011;5184;51.376;7.148;2023-02-11T05:45:19;54.23;;;28.63;;
10277;SDS011;5184;51.376;7.148;2023-02-11T05:47:46;48.10;;;29.07;;
10277;SDS011;5184;51.376;7.148;2023-02-11T05:50:14;47.17;;;29.63;;
10277;SDS011;5184;51.376;7.148;2023-02-11T05:52:40;45.70;;;28.03;;
10277;SDS011;5184;51.376;7.148;2023-02-11T05:55:07;51.37;;;29.27;;
10277;SDS011;5184;51.376;7.148;2023-02-11T05:57:33;46.10;;;29.40;;
10277;SDS011;5184;51.376;7.148;2023-02-11T06:00:01;50.27;;;29.17;;
10277;SDS011;5184;51.376;7.148;2023-02-11T06:02:27;45.47;;;27.93;;
10277;SDS011;5184;51.376;7.148;2023-02-11T06:04:55;45.13;;;28.63;;
10277;SDS011;5184;51.376;7.148;2023-02-11T06:07:21;49.73;;;29.23;;
10277;SDS011;5184;51.376;7.148;2023-02-11T06:09:48;55.07;;;29.40;;
10277;SDS011;5184;51.376;7.148;2023-02-11T06:12:15;48.37;;;29.70;;
10277;SDS011;5184;51.376;7.148;2023-02-11T06:14:41;45.30;;;29.03;;
10277;SDS011;5184;51.376;7.148;2023-02-11T06:17:08;48.70;;;28.67;;
10277;SDS011;5184;51.376;7.148;2023-02-11T06:19:34;44.03;;;28.63;;
10277;SDS011;5184;51.376;7.148;2023-02-11T06:22:01;46.33;;;28.10;;
10277;SDS011;5184;51.376;7.148;2023-02-11T06:24:28;44.70;;;27.03;;
10277;SDS011;5184;51.376;7.148;2023-02-11T06:26:55;42.03;;;27.63;;
10277;SDS011;5184;51.376;7.148;2023-02-11T06:29:22;47.03;;;27.13;;
10277;SDS011;5184;51.376;7.148;2023-02-11T06:31:48;43.40;;;26.97;;
10277;SDS011;5184;51.376;7.148;2023-02-11T06:34:15;45.33;;;26.90;;
10277;SDS011;5184;51.376;7.148;2023-02-11T06:36:41;47.00;;;28.30;;
10277;SDS011;5184;51.376;7.148;2023-02-11T06:39:10;41.87;;;26.80;;
10277;SDS011;5184;51.376;7.148;2023-02-11T06:41:36;42.67;;;25.73;;
10277;SDS011;5184;51.376;7.148;2023-02-11T06:44:04;40.20;;;26.73;;
10277;SDS011;5184;51.376;7.148;2023-02-11T06:46:30;40.57;;;26.37;;
10277;SDS011;5184;51.376;7.148;2023-02-11T06:48:57;42.97;;;27.87;;
10277;SDS011;5184;51.376;7.148;2023-02-11T06:51:23;44.27;;;27.50;;
10277;SDS011;5184;51.376;7.148;2023-02-11T06:53:51;48.47;;;30.03;;
10277;SDS011;5184;51.376;7.148;2023-02-11T06:56:19;51.33;;;28.27;;
10277;SDS011;5184;51.376;7.148;2023-02-11T06:58:45;45.00;;;29.23;;
10277;SDS011;5184;51.376;7.148;2023-02-11T07:01:12;45.23;;;28.10;;
10277;SDS011;5184;51.376;7.148;2023-02-11T07:03:39;49.00;;;28.57;;
10277;SDS011;5184;51.376;7.148;2023-02-11T07:06:05;48.90;;;30.03;;
10277;SDS011;5184;51.376;7.148;2023-02-11T07:08:32;53.13;;;30.27;;
10277;SDS011;5184;51.376;7.148;2023-02-11T07:10:58;49.70;;;29.27;;
10277;SDS011;5184;51.376;7.148;2023-02-11T07:13:26;55.07;;;31.10;;
10277;SDS011;5184;51.376;7.148;2023-02-11T07:15:52;55.87;;;31.13;;
10277;SDS011;5184;51.376;7.148;2023-02-11T07:18:19;60.67;;;32.00;;
10277;SDS011;5184;51.376;7.148;2023-02-11T07:20:46;62.63;;;31.80;;
10277;SDS011;5184;51.376;7.148;2023-02-11T07:23:13;64.17;;;31.80;;
10277;SDS011;5184;51.376;7.148;2023-02-11T07:25:39;58.43;;;30.93;;
10277;SDS011;5184;51.376;7.148;2023-02-11T07:28:06;57.50;;;30.70;;
10277;SDS011;5184;51.376;7.148;2023-02-11T07:30:33;59.90;;;30.47;;
10277;SDS011;5184;51.376;7.148;2023-02-11T07:32:59;63.30;;;31.57;;
10277;SDS011;5184;51.376;7.148;2023-02-11T07:35:26;65.90;;;32.30;;
10277;SDS011;5184;51.376;7.148;2023-02-11T07:37:53;64.23;;;32.70;;
10277;SDS011;5184;51.376;7.148;2023-02-11T07:40:20;68.60;;;33.17;;
10277;SDS011;5184;51.376;7.148;2023-02-11T07:42:47;68.10;;;32.30;;
10277;SDS011;5184;51.376;7.148;2023-02-11T07:45:15;65.83;;;31.67;;
10277;SDS011;5184;51.376;7.148;2023-02-11T07:47:41;69.90;;;32.30;;
10277;SDS011;5184;51.376;7.148;2023-02-11T07:50:09;70.43;;;33.20;;
10277;SDS011;5184;51.376;7.148;2023-02-11T07:52:35;69.80;;;32.97;;
10277;SDS011;5184;51.376;7.148;2023-02-11T07:55:02;65.33;;;32.53;;
10277;SDS011;5184;51.376;7.148;2023-02-11T07:57:29;69.57;;;33.10;;
10277;SDS011;5184;51.376;7.148;2023-02-11T07:59:55;79.10;;;34.73;;
10277;SDS011;5184;51.376;7.148;2023-02-11T08:02:22;69.97;;;34.17;;
10277;SDS011;5184;51.376;7.148;2023-02-11T08:04:49;69.43;;;34.00;;
10277;SDS011;5184;51.376;7.148;2023-02-11T08:07:17;69.53;;;34.43;;
10277;SDS011;5184;51.376;7.148;2023-02-11T08:09:44;75.20;;;35.17;;
10277;SDS011;5184;51.376;7.148;2023-02-11T08:12:11;78.90;;;34.73;;
10277;SDS011;5184;51.376;7.148;2023-02-11T08:14:37;71.93;;;32.93;;
10277;SDS011;5184;51.376;7.148;2023-02-11T08:17:05;67.33;;;33.63;;
10277;SDS011;5184;51.376;7.148;2023-02-11T08:19:31;77.53;;;34.43;;
10277;SDS011;5184;51.376;7.148;2023-02-11T08:21:58;71.67;;;33.50;;
10277;SDS011;5184;51.376;7.148;2023-02-11T08:24:25;74.07;;;36.07;;
10277;SDS011;5184;51.376;7.148;2023-02-11T08:26:51;59.83;;;31.80;;
10277;SDS011;5184;51.376;7.148;2023-02-11T08:29:18;73.77;;;32.97;;
10277;SDS011;5184;51.376;7.148;2023-02-11T08:31:46;67.77;;;32.10;;
10277;SDS011;5184;51.376;7.148;2023-02-11T08:34:12;67.83;;;31.57;;
10277;SDS011;5184;51.376;7.148;2023-02-11T08:36:39;70.13;;;31.17;;
10277;SDS011;5184;51.376;7.148;2023-02-11T08:39:06;77.03;;;33.70;;
10277;SDS011;5184;51.376;7.148;2023-02-11T08:41:32;69.23;;;33.20;;
10277;SDS011;5184;51.376;7.148;2023-02-11T08:43:58;67.93;;;32.23;;
10277;SDS011;5184;51.376;7.148;2023-02-11T08:46:25;74.03;;;33.30;;
10277;SDS011;5184;51.376;7.148;2023-02-11T08:48:52;66.40;;;31.63;;
10277;SDS011;5184;51.376;7.148;2023-02-11T08:51:21;61.53;;;31.90;;
10277;SDS011;5184;51.376;7.148;2023-02-11T08:53:47;70.13;;;31.83;;
10277;SDS011;5184;51.376;7.148;2023-02-11T08:56:14;67.87;;;32.03;;
10277;SDS011;5184;51.376;7.148;2023-02-11T08:58:41;73.33;;;32.30;;
10277;SDS011;5184;51.376;7.148;2023-02-11T09:01:10;69.57;;;33.00;;
10277;SDS011;5184;51.376;7.148;2023-02-11T09:03:35;66.80;;;31.87;;
10277;SDS011;5184;51.376;7.148;2023-02-11T09:06:03;64.37;;;31.47;;
10277;SDS011;5184;51.376;7.148;2023-02-11T09:08:29;65.00;;;31.57;;
10277;SDS011;5184;51.376;7.148;2023-02-11T09:10:56;62.57;;;31.10;;
10277;SDS011;5184;51.376;7.148;2023-02-11T09:13:23;70.33;;;32.53;;
10277;SDS011;5184;51.376;7.148;2023-02-11T09:15:49;69.37;;;34.00;;
10277;SDS011;5184;51.376;7.148;2023-02-11T09:18:17;69.13;;;32.47;;
10277;SDS011;5184;51.376;7.148;2023-02-11T09:20:44;71.10;;;31.13;;
10277;SDS011;5184;51.376;7.148;2023-02-11T09:23:11;67.20;;;31.87;;
10277;SDS011;5184;51.376;7.148;2023-02-11T09:25:38;70.97;;;32.73;;
10277;SDS011;5184;51.376;7.148;2023-02-11T09:28:04;64.13;;;32.07;;
10277;SDS011;5184;51.376;7.148;2023-02-11T09:30:30;71.47;;;32.53;;
10277;SDS011;5184;51.376;7.148;2023-02-11T09:32:57;71.13;;;33.03;;
10277;SDS011;5184;51.376;7.148;2023-02-11T09:35:24;72.47;;;33.23;;
10277;SDS011;5184;51.376;7.148;2023-02-11T09:37:51;63.00;;;31.53;;
10277;SDS011;5184;51.376;7.148;2023-02-11T09:40:18;69.17;;;32.80;;
10277;SDS011;5184;51.376;7.148;2023-02-11T09:42:45;72.20;;;33.43;;
10277;SDS011;5184;51.376;7.148;2023-02-11T09:45:16;67.20;;;33.63;;
10277;SDS011;5184;51.376;7.148;2023-02-11T09:47:44;65.57;;;32.03;;
10277;SDS011;5184;51.376;7.148;2023-02-11T09:50:15;67.70;;;31.23;;
10277;SDS011;5184;51.376;7.148;2023-02-11T09:52:46;62.30;;;30.53;;
10277;SDS011;5184;51.376;7.148;2023-02-11T09:55:20;68.53;;;31.53;;
10277;SDS011;5184;51.376;7.148;2023-02-11T09:57:44;71.40;;;33.10;;
10277;SDS011;5184;51.376;7.148;2023-02-11T10:00:17;68.60;;;32.33;;
10277;SDS011;5184;51.376;7.148;2023-02-11T10:05:46;62.80;;;30.10;;
10277;SDS011;5184;51.376;7.148;2023-02-11T10:08:17;63.80;;;32.30;;
10277;SDS011;5184;51.376;7.148;2023-02-11T10:10:45;72.90;;;33.53;;
10277;SDS011;5184;51.376;7.148;2023-02-11T10:13:29;65.17;;;31.27;;
10277;SDS011;5184;51.376;7.148;2023-02-11T10:15:58;68.40;;;31.30;;
10277;SDS011;5184;51.376;7.148;2023-02-11T10:18:33;62.77;;;32.47;;
10277;SDS011;5184;51.376;7.148;2023-02-11T10:21:11;60.50;;;32.17;;
10277;SDS011;5184;51.376;7.148;2023-02-11T10:23:49;71.53;;;32.73;;
10277;SDS011;5184;51.376;7.148;2023-02-11T10:26:15;69.47;;;31.37;;
10277;SDS011;5184;51.376;7.148;2023-02-11T10:28:43;66.87;;;31.73;;
10277;SDS011;5184;51.376;7.148;2023-02-11T10:31:14;68.20;;;32.67;;
10277;SDS011;5184;51.376;7.148;2023-02-11T10:33:45;70.93;;;33.37;;
10277;SDS011;5184;51.376;7.148;2023-02-11T10:36:25;64.47;;;32.83;;
10277;SDS011;5184;51.376;7.148;2023-02-11T10:38:52;66.37;;;32.00;;
10277;SDS011;5184;51.376;7.148;2023-02-11T10:41:20;69.17;;;33.60;;
10277;SDS011;5184;51.376;7.148;2023-02-11T10:43:46;69.53;;;33.53;;
10277;SDS011;5184;51.376;7.148;2023-02-11T10:46:15;66.80;;;32.57;;
10277;SDS011;5184;51.376;7.148;2023-02-11T10:48:42;66.37;;;31.70;;
10277;SDS011;5184;51.376;7.148;2023-02-11T10:51:14;59.53;;;31.80;;
10277;SDS011;5184;51.376;7.148;2023-02-11T10:53:42;64.70;;;33.03;;
10277;SDS011;5184;51.376;7.148;2023-02-11T10:56:10;61.67;;;31.83;;
10277;SDS011;5184;51.376;7.148;2023-02-11T10:58:40;64.20;;;32.27;;
10277;SDS011;5184;51.376;7.148;2023-02-11T11:01:05;58.50;;;30.60;;
10277;SDS011;5184;51.376;7.148;2023-02-11T11:03:33;71.83;;;32.23;;
10277;SDS011;5184;51.376;7.148;2023-02-11T11:06:01;62.97;;;33.20;;
10277;SDS011;5184;51.376;7.148;2023-02-11T11:08:45;61.17;;;32.13;;
10277;SDS011;5184;51.376;7.148;2023-02-11T11:11:13;64.70;;;30.17;;
10277;SDS011;5184;51.376;7.148;2023-02-11T11:13:41;62.83;;;32.30;;
10277;SDS011;5184;51.376;7.148;2023-02-11T11:16:15;59.63;;;32.57;;
10277;SDS011;5184;51.376;7.148;2023-02-11T11:18:41;70.83;;;32.43;;
10277;SDS011;5184;51.376;7.148;2023-02-11T11:21:13;66.30;;;33.50;;
10277;SDS011;5184;51.376;7.148;2023-02-11T11:23:49;66.27;;;32.30;;
10277;SDS011;5184;51.376;7.148;2023-02-11T11:26:14;62.87;;;32.63;;
10277;SDS011;5184;51.376;7.148;2023-02-11T11:28:50;61.80;;;31.07;;
10277;SDS011;5184;51.376;7.148;2023-02-11T11:31:19;64.97;;;32.67;;
10277;SDS011;5184;51.376;7.148;2023-02-11T11:33:45;60.47;;;32.07;;
10277;SDS011;5184;51.376;7.148;2023-02-11T11:36:13;61.07;;;31.83;;
10277;SDS011;5184;51.376;7.148;2023-02-11T11:38:44;65.07;;;31.83;;
10277;SDS011;5184;51.376;7.148;2023-02-11T11:41:15;64.27;;;30.73;;
10277;SDS011;5184;51.376;7.148;2023-02-11T11:43:55;67.50;;;32.63;;
10277;SDS011;5184;51.376;7.148;2023-02-11T11:46:25;62.93;;;31.77;;
10277;SDS011;5184;51.376;7.148;2023-02-11T11:48:51;63.30;;;31.27;;
10277;SDS011;5184;51.376;7.148;2023-02-11T11:51:17;64.43;;;33.73;;
10277;SDS011;5184;51.376;7.148;2023-02-11T11:53:45;66.43;;;32.37;;
10277;SDS011;5184;51.376;7.148;2023-02-11T11:56:12;67.37;;;32.50;;
10277;SDS011;5184;51.376;7.148;2023-02-11T11:58:39;64.00;;;31.73;;
10277;SDS011;5184;51.376;7.148;2023-02-11T12:01:11;64.50;;;32.77;;
10277;SDS011;5184;51.376;7.148;2023-02-11T12:06:42;70.13;;;34.40;;
10277;SDS011;5184;51.376;7.148;2023-02-11T12:09:15;68.03;;;34.13;;
10277;SDS011;5184;51.376;7.148;2023-02-11T12:11:51;73.73;;;36.37;;
10277;SDS011;5184;51.376;7.148;2023-02-11T12:19:42;63.97;;;34.63;;
10277;SDS011;5184;51.376;7.148;2023-02-11T12:22:21;68.90;;;36.20;;
10277;SDS011;5184;51.376;7.148;2023-02-11T12:24:55;63.53;;;32.80;;
10277;SDS011;5184;51.376;7.148;2023-02-11T12:27:27;70.23;;;34.40;;
10277;SDS011;5184;51.376;7.148;2023-02-11T12:29:58;67.87;;;34.63;;
10277;SDS011;5184;51.376;7.148;2023-02-11T12:32:24;71.00;;;33.93;;
10277;SDS011;5184;51.376;7.148;2023-02-11T12:35:21;71.00;;;36.13;;
10277;SDS011;5184;51.376;7.148;2023-02-11T12:37:49;72.47;;;37.33;;
10277;SDS011;5184;51.376;7.148;2023-02-11T12:40:22;78.80;;;37.87;;
10277;SDS011;5184;51.376;7.148;2023-02-11T12:43:24;78.13;;;36.00;;
10277;SDS011;5184;51.376;7.148;2023-02-11T12:45:59;69.10;;;36.50;;
10277;SDS011;5184;51.376;7.148;2023-02-11T12:48:30;69.03;;;36.00;;
10277;SDS011;5184;51.376;7.148;2023-02-11T12:54:41;73.13;;;36.17;;
10277;SDS011;5184;51.376;7.148;2023-02-11T12:56:52;72.43;;;37.07;;
10277;SDS011;5184;51.376;7.148;2023-02-11T13:02:17;71.67;;;39.20;;
10277;SDS011;5184;51.376;7.148;2023-02-11T13:05:01;71.27;;;36.43;;
10277;SDS011;5184;51.376;7.148;2023-02-11T13:07:31;70.70;;;35.73;;
10277;SDS011;5184;51.376;7.148;2023-02-11T13:09:58;69.97;;;35.73;;
10277;SDS011;5184;51.376;7.148;2023-02-11T13:12:25;72.60;;;36.40;;
10277;SDS011;5184;51.376;7.148;2023-02-11T13:14:58;72.47;;;36.93;;
10277;SDS011;5184;51.376;7.148;2023-02-11T13:17:27;78.70;;;39.43;;
10277;SDS011;5184;51.376;7.148;2023-02-11T13:19:52;76.33;;;38.63;;
10277;SDS011;5184;51.376;7.148;2023-02-11T13:22:23;68.23;;;36.60;;
10277;SDS011;5184;51.376;7.148;2023-02-11T13:24:55;69.80;;;38.17;;
10277;SDS011;5184;51.376;7.148;2023-02-11T13:27:23;73.73;;;38.33;;
10277;SDS011;5184;51.376;7.148;2023-02-11T13:30:02;70.83;;;38.97;;
10277;SDS011;5184;51.376;7.148;2023-02-11T13:32:46;67.33;;;37.47;;
10277;SDS011;5184;51.376;7.148;2023-02-11T13:34:56;74.03;;;38.57;;
10277;SDS011;5184;51.376;7.148;2023-02-11T13:37:24;74.93;;;38.40;;
10277;SDS011;5184;51.376;7.148;2023-02-11T13:39:56;76.70;;;40.60;;
10277;SDS011;5184;51.376;7.148;2023-02-11T13:42:22;72.80;;;37.47;;
10277;SDS011;5184;51.376;7.148;2023-02-11T13:44:48;77.37;;;39.60;;
10277;SDS011;5184;51.376;7.148;2023-02-11T13:47:21;73.13;;;39.40;;
10277;SDS011;5184;51.376;7.148;2023-02-11T13:49:54;80.30;;;41.17;;
10277;SDS011;5184;51.376;7.148;2023-02-11T13:52:23;75.43;;;38.33;;
10277;SDS011;5184;51.376;7.148;2023-02-11T13:54:49;68.97;;;37.77;;
10277;SDS011;5184;51.376;7.148;2023-02-11T13:57:24;74.93;;;39.83;;
10277;SDS011;5184;51.376;7.148;2023-02-11T13:59:50;75.37;;;38.97;;
10277;SDS011;5184;51.376;7.148;2023-02-11T14:02:19;74.63;;;39.37;;
10277;SDS011;5184;51.376;7.148;2023-02-11T14:08:19;84.33;;;40.13;;
10277;SDS011;5184;51.376;7.148;2023-02-11T14:10:48;75.40;;;38.67;;
10277;SDS011;5184;51.376;7.148;2023-02-11T14:13:36;79.67;;;41.53;;
10277;SDS011;5184;51.376;7.148;2023-02-11T14:16:04;80.07;;;40.97;;
10277;SDS011;5184;51.376;7.148;2023-02-11T14:18:37;83.90;;;41.77;;
10277;SDS011;5184;51.376;7.148;2023-02-11T14:21:19;73.90;;;39.47;;
10277;SDS011;5184;51.376;7.148;2023-02-11T14:23:46;77.07;;;42.93;;
10277;SDS011;5184;51.376;7.148;2023-02-11T14:26:24;76.80;;;41.73;;
10277;SDS011;5184;51.376;7.148;2023-02-11T14:28:51;80.43;;;41.47;;
10277;SDS011;5184;51.376;7.148;2023-02-11T14:31:33;76.93;;;40.87;;
10277;SDS011;5184;51.376;7.148;2023-02-11T14:34:04;78.20;;;40.40;;
10277;SDS011;5184;51.376;7.148;2023-02-11T14:36:37;78.70;;;41.37;;
10277;SDS011;5184;51.376;7.148;2023-02-11T14:39:18;73.87;;;39.53;;
10277;SDS011;5184;51.376;7.148;2023-02-11T14:41:44;67.20;;;37.80;;
10277;SDS011;5184;51.376;7.148;2023-02-11T14:44:14;71.97;;;39.37;;
10277;SDS011;5184;51.376;7.148;2023-02-11T14:46:42;66.43;;;37.00;;
10277;SDS011;5184;51.376;7.148;2023-02-11T14:49:11;68.50;;;38.17;;
10277;SDS011;5184;51.376;7.148;2023-02-11T14:51:34;69.90;;;38.07;;
10277;SDS011;5184;51.376;7.148;2023-02-11T14:54:03;65.77;;;36.33;;
10277;SDS011;5184;51.376;7.148;2023-02-11T14:56:30;67.77;;;37.83;;
10277;SDS011;5184;51.376;7.148;2023-02-11T14:58:57;69.57;;;36.57;;
10277;SDS011;5184;51.376;7.148;2023-02-11T15:01:31;67.57;;;36.87;;
10277;SDS011;5184;51.376;7.148;2023-02-11T15:03:57;64.80;;;36.30;;
10277;SDS011;5184;51.376;7.148;2023-02-11T15:06:27;64.53;;;37.40;;
10277;SDS011;5184;51.376;7.148;2023-02-11T15:09:03;63.77;;;36.20;;
10277;SDS011;5184;51.376;7.148;2023-02-11T15:11:31;65.57;;;36.37;;
10277;SDS011;5184;51.376;7.148;2023-02-11T15:13:57;70.23;;;37.10;;
10277;SDS011;5184;51.376;7.148;2023-02-11T15:16:23;60.30;;;35.30;;